Time;durP1;ratioP1;P1;durP2;ratioP2;P2;SDS_P1;SDS_P2;PMS_P1;PMS_P2;Temp;Humidity;BMP_temperature;BMP_pressure;BME280_temperature;BME280_humidity;BME280_pressure;Samples;Min_cycle;Max_cycle;Signal;HPM_P1;HPM_P2
2021/01/15 00:01:21;;;;;;;8.40;7.20;;;;;;;-3.03;100.00;98168.06;4966484;28;20453;-74
2021/01/15 00:03:49;;;;;;;7.90;6.83;;;;;;;-3.12;100.00;98162.41;4963213;28;20212;-74
2021/01/15 00:06:21;;;;;;;7.13;6.47;;;;;;;-3.15;100.00;98166.91;4963791;28;20300;-75
2021/01/15 00:08:49;;;;;;;7.83;7.13;;;;;;;-3.27;100.00;98163.16;4963785;28;20242;-72
2021/01/15 00:11:18;;;;;;;7.60;7.00;;;;;;;-3.30;100.00;98163.31;4965593;28;20489;-74
2021/01/15 00:13:45;;;;;;;7.63;6.80;;;;;;;-3.31;100.00;98159.84;4965298;28;20614;-73
2021/01/15 00:16:23;;;;;;;7.17;6.53;;;;;;;-3.29;100.00;98168.41;4970295;28;20758;-74
2021/01/15 00:18:51;;;;;;;7.93;7.17;;;;;;;-3.24;100.00;98158.66;4963720;28;20462;-74
2021/01/15 00:21:23;;;;;;;7.87;7.00;;;;;;;-3.20;100.00;98159.34;4964268;28;20559;-73
2021/01/15 00:23:51;;;;;;;7.87;7.07;;;;;;;-3.15;100.00;98157.38;4971315;28;20572;-73
2021/01/15 00:26:20;;;;;;;10.17;8.00;;;;;;;-3.07;100.00;98162.19;4965562;28;20464;-74
2021/01/15 00:28:47;;;;;;;6.87;6.20;;;;;;;-3.04;100.00;98164.66;4968920;28;20313;-74
2021/01/15 00:31:14;;;;;;;8.13;7.43;;;;;;;-3.03;100.00;98165.47;4970899;28;20681;-75
2021/01/15 00:33:42;;;;;;;8.33;7.33;;;;;;;-2.92;100.00;98165.81;4969286;28;20693;-75
2021/01/15 00:36:10;;;;;;;8.07;7.40;;;;;;;-2.83;100.00;98161.94;4967215;28;20210;-74
2021/01/15 00:38:38;;;;;;;8.63;7.47;;;;;;;-2.65;100.00;98170.56;4964055;28;20643;-75
2021/01/15 00:41:07;;;;;;;7.70;7.00;;;;;;;-2.79;100.00;98169.47;4966037;28;20210;-74
2021/01/15 00:43:35;;;;;;;7.97;7.13;;;;;;;-2.74;100.00;98164.06;4970239;28;20604;-75
2021/01/15 00:46:07;;;;;;;8.80;7.70;;;;;;;-2.76;100.00;98166.72;4965326;28;20453;-74
2021/01/15 00:48:34;;;;;;;8.83;8.03;;;;;;;-2.81;100.00;98170.47;4966567;28;20457;-75
2021/01/15 00:51:07;;;;;;;8.43;7.63;;;;;;;-2.74;100.00;98165.81;4964254;28;21001;-75
2021/01/15 00:53:34;;;;;;;10.47;8.83;;;;;;;-2.87;100.00;98166.41;4971926;28;21040;-75
2021/01/15 00:56:02;;;;;;;9.13;8.33;;;;;;;-2.80;100.00;98165.19;4963422;28;20225;-74
2021/01/15 00:58:30;;;;;;;9.30;8.50;;;;;;;-2.82;100.00;98163.59;4965766;28;20501;-75
2021/01/15 01:00:57;;;;;;;9.73;8.50;;;;;;;-2.72;100.00;98162.22;4961708;28;20470;-74
2021/01/15 01:03:24;;;;;;;10.03;8.70;;;;;;;-2.76;100.00;98165.91;4961730;28;20229;-75
2021/01/15 01:05:51;;;;;;;10.57;9.17;;;;;;;-2.82;100.00;98161.00;4967758;28;20548;-74
2021/01/15 01:08:18;;;;;;;10.17;8.53;;;;;;;-2.81;100.00;98160.91;4963006;28;20573;-74
2021/01/15 01:10:45;;;;;;;8.80;7.80;;;;;;;-2.51;100.00;98167.25;4971516;28;20211;-75
2021/01/15 01:13:14;;;;;;;9.77;7.70;;;;;;;-2.64;100.00;98165.28;4970298;28;20217;-75
2021/01/15 01:15:41;;;;;;;8.67;7.87;;;;;;;-2.55;100.00;98178.69;4967918;28;21136;-75
2021/01/15 01:18:09;;;;;;;9.87;8.17;;;;;;;-2.51;100.00;98177.63;4966862;28;20237;-75
2021/01/15 01:20:36;;;;;;;9.17;6.97;;;;;;;-2.53;100.00;98182.91;4968442;28;20450;-75
2021/01/15 01:23:03;;;;;;;8.33;7.40;;;;;;;-2.70;100.00;98188.09;4966436;28;20657;-75
2021/01/15 01:25:31;;;;;;;7.63;6.90;;;;;;;-2.77;100.00;98187.56;4971340;28;20454;-75
2021/01/15 01:27:58;;;;;;;8.57;7.67;;;;;;;-2.81;100.00;98181.69;4966611;28;20481;-74
2021/01/15 01:30:26;;;;;;;9.40;8.47;;;;;;;-2.83;100.00;98183.50;4970866;28;20556;-74
2021/01/15 01:32:53;;;;;;;8.97;8.17;;;;;;;-2.81;100.00;98186.88;4972255;28;20537;-74
2021/01/15 01:35:20;;;;;;;8.73;7.20;;;;;;;-2.97;100.00;98194.53;4967462;28;21004;-75
2021/01/15 01:37:48;;;;;;;8.83;8.00;;;;;;;-2.94;100.00;98193.56;4967765;28;20229;-75
2021/01/15 01:40:15;;;;;;;8.13;7.30;;;;;;;-3.15;100.00;98196.25;4964809;28;20261;-75
2021/01/15 01:42:43;;;;;;;7.43;6.83;;;;;;;-3.13;100.00;98197.03;4967163;28;20985;-74
2021/01/15 01:45:11;;;;;;;8.27;7.40;;;;;;;-3.34;100.00;98198.88;4969166;28;20457;-75
2021/01/15 01:47:39;;;;;;;8.00;7.30;;;;;;;-3.38;100.00;98203.38;4970524;28;21164;-75
2021/01/15 01:50:08;;;;;;;8.33;7.57;;;;;;;-3.27;100.00;98205.44;4976545;28;20460;-74
2021/01/15 01:52:35;;;;;;;8.17;7.17;;;;;;;-3.35;100.00;98203.25;4969252;28;20461;-74
2021/01/15 01:55:03;;;;;;;7.33;6.73;;;;;;;-3.35;100.00;98192.88;4972313;28;20507;-73
2021/01/15 01:57:31;;;;;;;9.50;8.47;;;;;;;-3.56;100.00;98192.13;4974036;28;20871;-74
2021/01/15 01:59:58;;;;;;;8.07;7.27;;;;;;;-3.57;100.00;98197.34;4968944;28;20457;-74
2021/01/15 02:02:25;;;;;;;10.10;9.07;;;;;;;-3.74;100.00;98186.03;4965755;28;20461;-74
2021/01/15 02:04:54;;;;;;;8.30;7.60;;;;;;;-3.75;100.00;98192.13;4967634;28;20461;-73
2021/01/15 02:07:21;;;;;;;10.17;8.10;;;;;;;-3.87;100.00;98195.25;4968537;28;20524;-74
2021/01/15 02:09:55;;;;;;;8.70;8.00;;;;;;;-3.89;100.00;98197.91;4967523;28;20465;-74
2021/01/15 02:12:30;;;;;;;8.87;8.07;;;;;;;-4.03;100.00;98193.34;4965079;28;20567;-74
2021/01/15 02:15:03;;;;;;;9.73;8.47;;;;;;;-4.09;100.00;98202.19;4966429;28;20849;-74
2021/01/15 02:17:38;;;;;;;8.43;7.73;;;;;;;-4.20;100.00;98194.06;4963040;28;20568;-74
2021/01/15 02:20:56;;;;;;;9.20;8.20;;;;;;;-4.25;100.00;98198.63;4966941;28;20453;-74
2021/01/15 02:23:31;;;;;;;8.67;7.80;;;;;;;-4.34;100.00;98197.25;4958827;28;20893;-74
2021/01/15 02:26:36;;;;;;;8.77;7.87;;;;;;;-4.26;100.00;98199.53;4966520;28;20564;-74
2021/01/15 02:29:10;;;;;;;8.93;7.57;;;;;;;-4.36;100.00;98207.69;4966217;28;20497;-75
2021/01/15 02:32:20;;;;;;;8.03;7.33;;;;;;;-4.29;100.00;98212.59;4967312;28;20466;-75
2021/01/15 02:34:59;;;;;;;8.80;7.93;;;;;;;-4.20;100.00;98207.00;4966263;28;20596;-74
2021/01/15 02:37:32;;;;;;;10.10;7.50;;;;;;;-4.22;100.00;98209.66;4965315;28;20767;-75
2021/01/15 02:40:03;;;;;;;11.20;8.27;;;;;;;-4.33;100.00;98209.28;4964947;28;20565;-75
2021/01/15 02:42:32;;;;;;;8.80;7.90;;;;;;;-4.49;100.00;98216.84;4963719;28;20464;-74
2021/01/15 02:45:00;;;;;;;8.77;7.83;;;;;;;-4.52;100.00;98219.56;4964789;28;20568;-75
2021/01/15 02:47:30;;;;;;;10.07;8.23;;;;;;;-4.47;100.00;98217.63;4966710;28;20476;-75
2021/01/15 02:49:58;;;;;;;10.63;8.97;;;;;;;-4.59;100.00;98220.72;4967055;28;20488;-75
2021/01/15 02:52:26;;;;;;;9.30;7.73;;;;;;;-4.66;100.00;98225.31;4968577;28;20917;-75
2021/01/15 02:54:53;;;;;;;8.20;7.50;;;;;;;-4.66;100.00;98226.16;4970403;28;20736;-74
2021/01/15 02:57:20;;;;;;;8.73;7.93;;;;;;;-4.71;100.00;98222.06;4968926;28;20877;-73
2021/01/15 02:59:48;;;;;;;9.90;9.00;;;;;;;-4.69;100.00;98228.88;4967806;28;20453;-75
2021/01/15 03:02:20;;;;;;;8.60;7.57;;;;;;;-4.83;100.00;98225.97;4966912;28;20501;-75
2021/01/15 03:04:53;;;;;;;8.63;7.93;;;;;;;-4.85;100.00;98230.38;4971726;28;20462;-75
2021/01/15 03:07:23;;;;;;;8.67;7.87;;;;;;;-4.91;100.00;98228.91;4964687;28;20604;-75
2021/01/15 03:09:54;;;;;;;9.63;8.73;;;;;;;-4.89;100.00;98241.75;4966990;28;20457;-73
2021/01/15 03:12:22;;;;;;;8.73;7.93;;;;;;;-4.82;100.00;98236.28;4964837;28;20458;-75
2021/01/15 03:14:49;;;;;;;10.50;8.90;;;;;;;-4.80;100.00;98231.03;4967901;28;20489;-75
2021/01/15 03:17:18;;;;;;;8.30;7.57;;;;;;;-4.89;100.00;98241.75;4965082;28;20556;-75
2021/01/15 03:19:46;;;;;;;8.90;7.77;;;;;;;-4.92;100.00;98232.38;4971408;28;20980;-75
2021/01/15 03:22:16;;;;;;;8.70;7.80;;;;;;;-5.03;100.00;98245.72;4969531;28;20938;-74
2021/01/15 03:24:52;;;;;;;8.97;8.03;;;;;;;-5.06;100.00;98237.25;4977708;28;20449;-75
2021/01/15 03:27:19;;;;;;;8.70;7.90;;;;;;;-5.06;100.00;98247.56;4969323;28;20993;-75
2021/01/15 03:29:47;;;;;;;9.47;8.33;;;;;;;-5.13;100.00;98249.53;4978257;28;20546;-74
2021/01/15 03:32:14;;;;;;;9.43;8.43;;;;;;;-5.07;100.00;98249.34;4974986;28;20771;-74
2021/01/15 03:34:41;;;;;;;9.13;8.33;;;;;;;-5.07;100.00;98244.16;4974078;28;20621;-75
2021/01/15 03:37:09;;;;;;;10.67;8.07;;;;;;;-5.13;100.00;98245.25;4969822;28;20619;-75
2021/01/15 03:39:37;;;;;;;10.17;8.50;;;;;;;-5.11;100.00;98251.19;4973107;28;20566;-74
2021/01/15 03:42:04;;;;;;;9.97;8.03;;;;;;;-5.16;100.00;98257.41;4964539;28;20480;-75
2021/01/15 03:44:31;;;;;;;9.03;8.20;;;;;;;-5.25;100.00;98251.72;4966848;28;20495;-74
2021/01/15 03:46:59;;;;;;;8.57;7.70;;;;;;;-5.25;100.00;98256.06;4964243;28;20477;-75
2021/01/15 03:49:26;;;;;;;8.73;7.77;;;;;;;-5.33;100.00;98253.75;4962944;28;20505;-74
2021/01/15 03:51:53;;;;;;;11.33;8.73;;;;;;;-5.32;100.00;98249.41;4968384;28;20468;-74
2021/01/15 03:54:20;;;;;;;8.47;7.63;;;;;;;-5.37;100.00;98244.44;4972447;28;20488;-75
2021/01/15 03:56:50;;;;;;;8.93;7.97;;;;;;;-5.41;100.00;98250.63;4968012;28;20593;-75
2021/01/15 03:59:17;;;;;;;8.20;7.47;;;;;;;-5.48;100.00;98250.00;4968254;28;20557;-75
2021/01/15 04:01:45;;;;;;;8.20;7.40;;;;;;;-5.48;100.00;98256.94;4969384;28;20568;-75
2021/01/15 04:04:12;;;;;;;10.13;8.53;;;;;;;-5.56;100.00;98262.38;4967118;28;20549;-74
2021/01/15 04:06:40;;;;;;;9.00;8.20;;;;;;;-5.59;100.00;98258.13;4963819;28;20473;-75
2021/01/15 04:09:07;;;;;;;8.97;8.07;;;;;;;-5.60;100.00;98256.47;4966704;28;20470;-75
2021/01/15 04:11:34;;;;;;;8.93;8.10;;;;;;;-5.64;100.00;98262.63;4961606;28;20493;-75
2021/01/15 04:14:02;;;;;;;9.00;8.13;;;;;;;-5.73;100.00;98260.38;4967109;28;20581;-75
2021/01/15 04:16:29;;;;;;;10.43;7.80;;;;;;;-5.76;100.00;98266.50;4958782;28;20485;-75
2021/01/15 04:18:56;;;;;;;9.47;8.57;;;;;;;-5.71;100.00;98263.75;4964210;28;20453;-75
2021/01/15 04:21:24;;;;;;;8.93;8.03;;;;;;;-5.68;100.00;98269.66;4970814;28;20454;-75
2021/01/15 04:23:51;;;;;;;8.47;7.57;;;;;;;-5.76;100.00;98278.56;4965819;28;20963;-75
2021/01/15 04:26:18;;;;;;;8.57;7.77;;;;;;;-5.79;100.00;98278.69;4963778;28;20437;-74
2021/01/15 04:28:46;;;;;;;8.83;7.93;;;;;;;-5.83;100.00;98281.38;4962247;28;20450;-75
2021/01/15 04:31:16;;;;;;;9.10;7.57;;;;;;;-5.89;100.00;98289.31;4967465;28;20441;-75
2021/01/15 04:33:44;;;;;;;10.17;8.97;;;;;;;-5.76;100.00;98273.41;4963044;28;20485;-74
2021/01/15 04:36:11;;;;;;;10.00;8.97;;;;;;;-5.53;100.00;98285.50;4963781;28;20445;-74
2021/01/15 04:38:39;;;;;;;18.20;12.60;;;;;;;-5.50;100.00;98279.34;4970034;28;20568;-74
2021/01/15 04:41:07;;;;;;;17.30;11.37;;;;;;;-5.44;100.00;98269.66;4968934;28;20461;-75
2021/01/15 04:43:35;;;;;;;12.33;10.23;;;;;;;-5.61;100.00;98272.84;4965402;28;20446;-74
2021/01/15 04:46:04;;;;;;;15.40;10.20;;;;;;;-5.75;100.00;98281.09;4965427;28;20445;-75
2021/01/15 04:48:33;;;;;;;11.27;9.30;;;;;;;-5.78;100.00;98290.69;4965454;28;20541;-74
2021/01/15 04:51:02;;;;;;;12.50;10.50;;;;;;;-5.85;100.00;98284.91;4961612;28;20456;-74
2021/01/15 04:53:30;;;;;;;12.20;10.37;;;;;;;-5.92;100.00;98293.75;4965796;28;20453;-74
2021/01/15 04:55:59;;;;;;;12.30;9.80;;;;;;;-5.97;100.00;98294.78;4964884;28;20516;-75
2021/01/15 04:58:27;;;;;;;11.93;9.57;;;;;;;-6.00;100.00;98288.84;4967590;28;20472;-74
2021/01/15 05:00:57;;;;;;;10.67;9.67;;;;;;;-6.06;100.00;98287.38;4969929;28;20956;-74
2021/01/15 05:03:25;;;;;;;10.23;9.20;;;;;;;-5.97;100.00;98299.94;4972559;28;20491;-75
2021/01/15 05:05:59;;;;;;;9.93;9.13;;;;;;;-5.83;100.00;98294.28;4982722;28;20475;-74
2021/01/15 05:08:28;;;;;;;10.63;9.53;;;;;;;-5.84;100.00;98309.81;4979030;28;20494;-73
2021/01/15 05:10:56;;;;;;;12.60;10.33;;;;;;;-5.87;100.00;98310.78;4982424;28;20465;-74
2021/01/15 05:13:23;;;;;;;11.57;10.47;;;;;;;-5.86;100.00;98317.63;4978580;28;20500;-75
2021/01/15 05:15:52;;;;;;;11.03;9.90;;;;;;;-5.76;100.00;98325.88;4980450;28;21197;-75
2021/01/15 05:18:20;;;;;;;13.77;12.40;;;;;;;-5.68;100.00;98323.03;4971402;28;20531;-75
2021/01/15 05:20:47;;;;;;;10.67;8.53;;;;;;;-5.62;100.00;98322.00;4979167;28;20641;-75
2021/01/15 05:23:16;;;;;;;12.87;11.57;;;;;;;-5.44;100.00;98317.91;4979227;28;20795;-75
2021/01/15 05:25:45;;;;;;;10.93;9.67;;;;;;;-5.43;100.00;98323.00;4981892;28;20528;-75
2021/01/15 05:28:14;;;;;;;10.63;9.57;;;;;;;-5.49;100.00;98325.81;4981349;28;20477;-75
2021/01/15 05:30:41;;;;;;;10.13;9.13;;;;;;;-5.53;100.00;98325.06;4981006;28;20465;-74
2021/01/15 05:33:13;;;;;;;10.10;9.20;;;;;;;-5.40;100.00;98333.22;4985409;28;20458;-74
2021/01/15 05:35:43;;;;;;;10.70;8.97;;;;;;;-5.63;100.00;98331.47;4980593;28;21005;-74
2021/01/15 05:38:13;;;;;;;10.30;9.07;;;;;;;-5.56;100.00;98343.25;4985088;28;20594;-76
2021/01/15 05:40:42;;;;;;;10.57;9.10;;;;;;;-5.65;100.00;98343.59;4980517;28;20927;-74
2021/01/15 05:43:20;;;;;;;10.87;9.63;;;;;;;-5.74;100.00;98342.16;4983858;28;20464;-69
2021/01/15 05:46:05;;;;;;;10.70;9.27;;;;;;;-5.60;100.00;98343.44;4988491;28;20480;-71
2021/01/15 05:48:33;;;;;;;12.30;10.90;;;;;;;-5.72;100.00;98350.69;4981924;28;20825;-74
2021/01/15 05:51:00;;;;;;;11.00;9.90;;;;;;;-5.87;100.00;98346.94;4981921;28;20212;-74
2021/01/15 05:53:30;;;;;;;11.30;9.97;;;;;;;-5.77;100.00;98359.50;4976937;28;20461;-75
2021/01/15 05:55:58;;;;;;;11.43;9.93;;;;;;;-5.76;100.00;98366.34;4982587;28;20531;-74
2021/01/15 05:58:25;;;;;;;10.93;9.83;;;;;;;-5.72;100.00;98363.59;4985555;28;21004;-74
2021/01/15 06:00:53;;;;;;;13.40;10.40;;;;;;;-5.68;100.00;98367.78;4985168;28;20951;-73
2021/01/15 06:03:22;;;;;;;11.30;10.03;;;;;;;-5.67;100.00;98371.19;4983950;28;20888;-75
2021/01/15 06:05:50;;;;;;;12.80;11.27;;;;;;;-5.73;100.00;98371.41;4983854;28;20457;-75
2021/01/15 06:08:18;;;;;;;11.93;9.90;;;;;;;-5.74;100.00;98373.13;4982381;28;20510;-76
2021/01/15 06:10:46;;;;;;;11.77;10.53;;;;;;;-5.75;100.00;98379.19;4980606;28;20536;-75
2021/01/15 06:13:36;;;;;;;14.30;10.93;;;;;;;-5.79;100.00;98380.19;4980050;28;21136;-75
2021/01/15 06:16:05;;;;;;;9.97;8.97;;;;;;;-5.79;100.00;98392.28;4970356;28;21027;-74
2021/01/15 06:18:33;;;;;;;11.83;10.23;;;;;;;-5.72;100.00;98391.19;4979066;28;20543;-74
2021/01/15 06:21:07;;;;;;;11.03;9.90;;;;;;;-5.75;100.00;98383.53;4979007;28;20539;-75
2021/01/15 06:23:40;;;;;;;11.83;10.70;;;;;;;-5.83;100.00;98392.38;4983295;28;20451;-75
2021/01/15 06:26:08;;;;;;;11.43;10.33;;;;;;;-5.98;100.00;98388.56;4980796;28;20859;-76
2021/01/15 06:28:37;;;;;;;11.50;10.33;;;;;;;-5.96;100.00;98383.34;4983772;28;20453;-74
2021/01/15 06:31:08;;;;;;;13.23;12.03;;;;;;;-5.92;100.00;98392.66;4983560;28;20453;-73
2021/01/15 06:33:36;;;;;;;12.70;11.40;;;;;;;-5.95;100.00;98390.19;4979982;28;20877;-74
2021/01/15 06:36:05;;;;;;;12.57;11.23;;;;;;;-6.13;100.00;98392.53;4986683;28;20545;-73
2021/01/15 06:38:37;;;;;;;15.30;11.60;;;;;;;-6.30;100.00;98393.06;4979933;28;20464;-74
2021/01/15 06:41:17;;;;;;;13.23;11.83;;;;;;;-6.38;100.00;98400.22;4984834;28;20961;-75
2021/01/15 06:43:45;;;;;;;35.23;20.20;;;;;;;-6.30;100.00;98402.53;4983079;28;20465;-74
2021/01/15 06:46:19;;;;;;;31.67;28.50;;;;;;;-6.36;100.00;98408.75;4984556;28;21031;-75
2021/01/15 06:48:47;;;;;;;12.97;11.67;;;;;;;-6.43;100.00;98402.91;4984513;28;20591;-74
2021/01/15 06:51:14;;;;;;;13.73;12.17;;;;;;;-6.42;100.00;98409.78;4983442;28;20444;-74
2021/01/15 06:53:41;;;;;;;11.00;9.90;;;;;;;-6.21;100.00;98414.31;4990166;28;21040;-74
2021/01/15 06:56:10;;;;;;;13.93;11.23;;;;;;;-6.27;100.00;98408.44;4985228;28;20516;-75
2021/01/15 06:58:39;;;;;;;11.97;10.83;;;;;;;-6.36;100.00;98402.72;4984124;28;20791;-75
2021/01/15 07:01:19;;;;;;;12.33;11.03;;;;;;;-6.37;100.00;98403.63;4981486;28;20515;-74
2021/01/15 07:04:13;;;;;;;11.93;10.73;;;;;;;-6.27;100.00;98416.19;4979925;28;20502;-74
2021/01/15 07:06:51;;;;;;;12.07;10.87;;;;;;;-6.27;100.00;98408.44;4978454;28;21055;-74
2021/01/15 07:09:19;;;;;;;13.13;10.20;;;;;;;-6.36;100.00;98410.47;4982019;28;20766;-74
2021/01/15 07:11:46;;;;;;;12.77;11.50;;;;;;;-6.08;100.00;98419.91;4984888;28;20888;-74
2021/01/15 07:14:19;;;;;;;12.47;11.17;;;;;;;-6.13;100.00;98425.22;4986379;28;20557;-75
2021/01/15 07:16:53;;;;;;;16.33;12.80;;;;;;;-6.13;100.00;98427.78;4988359;28;20988;-74
2021/01/15 07:19:30;;;;;;;14.47;11.40;;;;;;;-6.01;100.00;98436.88;4979468;28;20460;-71
2021/01/15 07:22:09;;;;;;;13.50;11.80;;;;;;;-6.08;100.00;98435.41;4984550;28;20478;-71
2021/01/15 07:24:37;;;;;;;14.30;12.67;;;;;;;-6.21;100.00;98440.97;4978949;28;20493;-71
2021/01/15 07:27:06;;;;;;;60.30;36.33;;;;;;;-6.25;100.00;98447.94;4981327;28;20488;-75
2021/01/15 07:29:36;;;;;;;17.17;13.77;;;;;;;-6.07;100.00;98443.09;4978411;28;20459;-76
2021/01/15 07:32:08;;;;;;;15.13;12.60;;;;;;;-5.88;100.00;98450.22;4985027;28;20465;-75
2021/01/15 07:34:37;;;;;;;14.47;12.97;;;;;;;-5.76;100.00;98449.81;4977103;28;20480;-75
2021/01/15 07:37:26;;;;;;;11.60;10.47;;;;;;;-5.60;100.00;98452.72;4980214;28;20476;-75
2021/01/15 07:40:04;;;;;;;19.03;14.63;;;;;;;-5.52;100.00;98450.72;4977207;28;20449;-75
2021/01/15 07:42:39;;;;;;;21.13;18.63;;;;;;;-5.53;100.00;98456.78;4983592;28;20709;-76
2021/01/15 07:45:07;;;;;;;31.00;27.80;;;;;;;-5.44;100.00;98457.41;4980604;28;20555;-73
2021/01/15 07:47:37;;;;;;;14.43;12.50;;;;;;;-5.14;100.00;98465.81;4983188;28;20655;-73
2021/01/15 07:50:06;;;;;;;17.33;14.57;;;;;;;-5.10;100.00;98471.72;4984627;28;20743;-74
2021/01/15 07:52:34;;;;;;;16.87;14.00;;;;;;;-4.96;100.00;98478.97;4978734;28;20689;-74
2021/01/15 07:55:01;;;;;;;13.33;11.93;;;;;;;-4.97;100.00;98479.88;4981405;28;20492;-74
2021/01/15 07:57:30;;;;;;;13.93;12.50;;;;;;;-4.68;100.00;98483.16;4981977;28;20556;-74
2021/01/15 07:59:59;;;;;;;12.80;11.60;;;;;;;-4.63;100.00;98476.06;4982177;28;20556;-74
2021/01/15 08:02:26;;;;;;;13.60;11.53;;;;;;;-4.78;100.00;98477.47;4979987;28;20490;-73
2021/01/15 08:05:04;;;;;;;12.67;11.07;;;;;;;-4.63;100.00;98485.59;4980972;28;20469;-73
2021/01/15 08:07:36;;;;;;;12.63;11.33;;;;;;;-4.53;100.00;98490.38;4982873;28;20481;-73
2021/01/15 08:10:09;;;;;;;12.97;11.53;;;;;;;-4.37;100.00;98487.19;4992084;28;21050;-74
2021/01/15 08:12:37;;;;;;;13.63;12.23;;;;;;;-4.39;100.00;98492.41;4985214;28;20494;-74
2021/01/15 08:15:05;;;;;;;14.90;13.23;;;;;;;-4.30;100.00;98487.81;4982853;28;20506;-75
2021/01/15 08:17:33;;;;;;;14.47;12.17;;;;;;;-4.30;100.00;98493.00;4979590;28;20481;-74
2021/01/15 08:20:01;;;;;;;13.20;11.90;;;;;;;-4.14;100.00;98491.50;4981559;28;20452;-74
2021/01/15 08:22:29;;;;;;;13.30;11.90;;;;;;;-4.14;100.00;98490.66;4983236;28;20567;-76
2021/01/15 08:24:56;;;;;;;13.30;11.90;;;;;;;-4.15;100.00;98499.31;4979226;28;21047;-75
2021/01/15 08:27:24;;;;;;;18.03;13.30;;;;;;;-3.95;100.00;98493.38;4981952;28;20471;-74
2021/01/15 08:29:51;;;;;;;68.90;35.03;;;;;;;-3.96;100.00;98494.28;4983832;28;20552;-74
2021/01/15 08:32:18;;;;;;;31.20;20.13;;;;;;;-3.91;100.00;98497.53;4979937;28;20588;-74
2021/01/15 08:34:45;;;;;;;106.03;46.63;;;;;;;-3.70;100.00;98503.59;4981666;28;21020;-74
2021/01/15 08:37:16;;;;;;;63.20;31.63;;;;;;;-3.73;99.34;98498.53;4974346;28;20599;-73
2021/01/15 08:39:45;;;;;;;17.13;13.20;;;;;;;-3.71;99.14;98499.31;4982986;28;20988;-73
2021/01/15 08:42:14;;;;;;;14.03;12.43;;;;;;;-3.50;99.03;98510.56;4980720;28;20582;-76
2021/01/15 08:44:42;;;;;;;12.87;11.43;;;;;;;-3.64;98.42;98512.84;4982436;28;20568;-74
2021/01/15 08:47:11;;;;;;;13.43;12.10;;;;;;;-3.43;97.48;98510.31;4987596;28;20623;-75
2021/01/15 08:49:39;;;;;;;14.90;12.57;;;;;;;-3.53;99.53;98508.09;4978388;28;20985;-75
2021/01/15 08:52:06;;;;;;;29.03;19.47;;;;;;;-3.26;97.30;98518.22;4983210;28;20463;-73
2021/01/15 08:54:37;;;;;;;17.23;14.17;;;;;;;-3.22;97.20;98526.72;4982752;28;20583;-74
2021/01/15 08:57:06;;;;;;;74.30;34.07;;;;;;;-3.18;98.43;98523.06;4981297;28;20486;-75
2021/01/15 08:59:33;;;;;;;19.17;14.20;;;;;;;-3.19;97.71;98526.56;4984472;28;20461;-76
2021/01/15 09:02:01;;;;;;;13.80;12.47;;;;;;;-2.94;94.67;98528.97;4976923;28;20463;-75
2021/01/15 09:04:31;;;;;;;17.17;15.23;;;;;;;-2.96;94.77;98523.00;4980163;28;20468;-74
2021/01/15 09:06:59;;;;;;;13.83;12.43;;;;;;;-2.98;94.65;98532.59;4988068;28;20583;-76
2021/01/15 09:09:28;;;;;;;13.00;11.63;;;;;;;-2.88;93.92;98540.84;4975979;28;20467;-73
2021/01/15 09:11:55;;;;;;;15.17;12.47;;;;;;;-2.92;94.48;98545.31;4980729;28;20470;-75
2021/01/15 09:14:24;;;;;;;15.07;12.93;;;;;;;-2.92;95.77;98550.50;4979856;28;20452;-73
2021/01/15 09:16:53;;;;;;;16.27;13.47;;;;;;;-2.66;93.79;98547.69;4981605;28;20595;-74
2021/01/15 09:19:21;;;;;;;15.63;12.70;;;;;;;-2.60;93.72;98555.22;4979174;28;20933;-74
2021/01/15 09:21:50;;;;;;;15.30;13.10;;;;;;;-2.43;90.93;98554.47;4981654;28;20890;-73
2021/01/15 09:24:18;;;;;;;24.23;18.27;;;;;;;-2.40;90.81;98554.34;4980093;28;20540;-73
2021/01/15 09:26:46;;;;;;;32.53;24.43;;;;;;;-2.59;92.88;98558.66;4981585;28;20480;-72
2021/01/15 09:29:13;;;;;;;16.17;14.60;;;;;;;-2.48;93.14;98561.59;4980548;28;20453;-72
2021/01/15 09:31:42;;;;;;;14.43;12.93;;;;;;;-2.25;92.37;98565.78;4983801;28;20861;-73
2021/01/15 09:34:12;;;;;;;20.23;13.40;;;;;;;-2.07;90.21;98561.53;4981429;28;20828;-73
2021/01/15 09:36:41;;;;;;;15.47;13.43;;;;;;;-2.06;90.19;98562.34;4983987;28;20488;-72
2021/01/15 09:39:08;;;;;;;14.60;13.10;;;;;;;-1.93;89.27;98570.41;4984334;28;20460;-73
2021/01/15 09:41:36;;;;;;;14.30;12.83;;;;;;;-1.80;88.63;98565.50;4986096;28;20821;-74
2021/01/15 09:44:03;;;;;;;13.03;11.80;;;;;;;-1.79;88.77;98575.81;4988057;28;20548;-74
2021/01/15 09:46:30;;;;;;;14.30;12.80;;;;;;;-1.78;88.34;98577.50;4988172;28;20233;-73
2021/01/15 09:48:59;;;;;;;14.00;12.10;;;;;;;-1.86;87.88;98582.22;4983472;28;20213;-73
2021/01/15 09:51:28;;;;;;;13.23;12.00;;;;;;;-1.90;87.27;98583.25;4985440;28;20457;-73
2021/01/15 09:53:56;;;;;;;15.20;13.63;;;;;;;-1.85;88.42;98583.88;4988192;28;20464;-73
2021/01/15 09:56:28;;;;;;;14.73;13.30;;;;;;;-1.91;87.59;98584.19;4989057;28;20224;-73
2021/01/15 09:58:57;;;;;;;18.80;14.17;;;;;;;-2.13;89.46;98587.75;4986436;28;20316;-74
2021/01/15 10:01:25;;;;;;;17.27;13.67;;;;;;;-1.95;89.07;98580.88;4984098;28;20889;-73
2021/01/15 10:03:53;;;;;;;12.90;11.47;;;;;;;-1.74;85.92;98593.78;4991264;28;20455;-73
2021/01/15 10:06:21;;;;;;;12.90;11.23;;;;;;;-1.84;86.68;98587.34;4983950;28;20559;-73
2021/01/15 10:08:48;;;;;;;12.57;11.37;;;;;;;-1.84;86.10;98587.34;4984277;28;21471;-73
2021/01/15 10:11:20;;;;;;;12.07;10.67;;;;;;;-1.81;84.72;98588.03;4984617;28;21022;-74
2021/01/15 10:13:48;;;;;;;12.93;11.63;;;;;;;-1.70;85.71;98584.09;4982018;28;20677;-73
2021/01/15 10:16:15;;;;;;;16.63;13.93;;;;;;;-1.46;85.36;98579.50;4986393;28;20528;-74
2021/01/15 10:18:42;;;;;;;12.53;11.23;;;;;;;-1.67;84.73;98583.97;4983250;28;20464;-73
2021/01/15 10:21:09;;;;;;;12.03;10.93;;;;;;;-1.48;83.49;98583.94;4986839;28;20214;-72
2021/01/15 10:23:38;;;;;;;13.83;11.83;;;;;;;-1.39;84.34;98582.63;4983847;28;20551;-75
2021/01/15 10:26:06;;;;;;;11.60;10.40;;;;;;;-1.13;83.80;98583.13;4981278;28;20583;-74
2021/01/15 10:28:33;;;;;;;11.20;10.00;;;;;;;-1.17;82.34;98585.03;4988680;28;20554;-74
2021/01/15 10:31:00;;;;;;;12.43;9.50;;;;;;;-1.40;82.43;98580.94;4962547;28;20501;-76
2021/01/15 10:33:27;;;;;;;10.60;9.50;;;;;;;-1.59;82.54;98587.03;4965670;28;20458;-76
2021/01/15 10:35:54;;;;;;;11.57;10.30;;;;;;;-1.51;81.90;98584.91;4966088;28;20512;-72
2021/01/15 10:38:22;;;;;;;10.60;9.60;;;;;;;-1.58;83.91;98574.88;4973748;28;21001;-72
2021/01/15 10:40:50;;;;;;;11.90;10.80;;;;;;;-1.67;82.57;98583.97;4966139;28;20543;-73
2021/01/15 10:43:17;;;;;;;11.70;10.60;;;;;;;-1.74;82.65;98588.59;4968623;28;20459;-74
2021/01/15 10:45:44;;;;;;;13.47;10.40;;;;;;;-1.69;83.07;98575.41;4965444;28;20607;-73
2021/01/15 10:48:11;;;;;;;11.97;10.73;;;;;;;-1.46;82.65;98575.13;4966606;28;21023;-69
2021/01/15 10:50:39;;;;;;;13.30;11.40;;;;;;;-1.21;84.58;98581.75;4965054;28;20214;-68
2021/01/15 10:53:06;;;;;;;11.43;10.17;;;;;;;-1.10;82.75;98575.16;4961627;28;20850;-75
2021/01/15 10:55:34;;;;;;;18.27;15.63;;;;;;;-1.07;81.75;98578.47;4965648;28;20593;-73
2021/01/15 10:58:05;;;;;;;13.43;12.03;;;;;;;-0.99;80.67;98575.47;4962814;28;20239;-74
2021/01/15 11:00:34;;;;;;;11.17;10.07;;;;;;;-0.92;80.51;98582.06;4969376;28;20228;-74
2021/01/15 11:03:01;;;;;;;16.60;14.77;;;;;;;-1.02;79.20;98575.63;4963448;28;20453;-74
2021/01/15 11:05:28;;;;;;;31.40;21.87;;;;;;;-0.93;79.63;98580.38;4963353;28;20218;-73
2021/01/15 11:07:55;;;;;;;15.37;10.77;;;;;;;-0.85;78.23;98579.97;4959190;28;20235;-72
2021/01/15 11:10:22;;;;;;;23.27;16.37;;;;;;;-0.76;78.33;98583.88;4964134;28;20226;-74
2021/01/15 11:12:49;;;;;;;17.67;14.37;;;;;;;-0.61;78.19;98575.28;4965181;28;20587;-75
2021/01/15 11:15:18;;;;;;;18.50;14.57;;;;;;;-0.18;76.51;98581.78;4963840;28;20509;-73
2021/01/15 11:17:45;;;;;;;13.40;10.90;;;;;;;-0.05;76.92;98582.81;4965111;28;20250;-75
2021/01/15 11:20:12;;;;;;;34.97;27.60;;;;;;;-0.08;76.73;98574.31;4964969;28;20212;-74
2021/01/15 11:22:44;;;;;;;23.13;18.60;;;;;;;0.13;75.31;98578.38;4959702;28;20210;-74
2021/01/15 11:25:12;;;;;;;13.27;11.90;;;;;;;0.22;75.39;98576.19;4966958;28;20297;-74
2021/01/15 11:27:39;;;;;;;12.30;11.10;;;;;;;0.06;75.36;98584.84;4961673;28;20256;-75